createdAt,value
2019-03-28T00:01:06.720Z,4.15
2019-03-28T00:03:33.961Z,3.75
2019-03-28T00:06:01.174Z,4.53
2019-03-28T00:08:28.458Z,3.60
2019-03-28T00:10:55.728Z,3.37
2019-03-28T00:13:22.952Z,3.45
2019-03-28T00:15:50.175Z,3.70
2019-03-28T00:18:17.407Z,4.12
2019-03-28T00:20:44.623Z,4.55
2019-03-28T00:23:19.264Z,4.05
2019-03-28T00:25:46.478Z,4.05
2019-03-28T00:28:13.703Z,4.47
2019-03-28T00:30:40.927Z,5.00
2019-03-28T00:33:08.163Z,4.72
2019-03-28T00:35:35.378Z,3.92
2019-03-28T00:38:02.603Z,4.55
2019-03-28T00:40:30.217Z,4.35
2019-03-28T00:42:57.850Z,3.50
2019-03-28T00:45:25.059Z,4.45
2019-03-28T00:47:52.371Z,5.60
2019-03-28T00:50:19.668Z,3.98
2019-03-28T00:52:46.945Z,4.20
2019-03-28T00:55:14.262Z,5.17
2019-03-28T00:57:41.463Z,4.22
2019-03-28T01:00:09.156Z,3.22
2019-03-28T01:02:36.380Z,3.98
2019-03-28T01:05:05.366Z,3.58
2019-03-28T01:07:32.600Z,3.47
2019-03-28T01:09:59.823Z,3.72
2019-03-28T01:12:27.373Z,3.12
2019-03-28T01:14:54.849Z,3.05
2019-03-28T01:17:22.069Z,3.60
2019-03-28T01:19:49.294Z,3.60
2019-03-28T01:22:16.503Z,3.20
2019-03-28T01:24:43.732Z,6.40
2019-03-28T01:27:10.958Z,3.35
2019-03-28T01:29:38.179Z,4.60
2019-03-28T01:32:05.638Z,5.00
2019-03-28T01:34:33.217Z,4.92
2019-03-28T01:37:00.891Z,4.75
2019-03-28T01:39:28.123Z,4.92
2019-03-28T01:41:55.418Z,5.33
2019-03-28T01:44:22.652Z,5.12
2019-03-28T01:46:50.314Z,5.90
2019-03-28T01:49:17.691Z,4.58
2019-03-28T01:51:44.983Z,5.72
2019-03-28T01:54:12.210Z,5.15
2019-03-28T01:56:39.440Z,4.72
2019-03-28T01:59:06.653Z,4.10
2019-03-28T02:01:33.883Z,5.12
2019-03-28T02:04:01.112Z,4.40
2019-03-28T02:06:28.318Z,5.35
2019-03-28T02:08:55.535Z,3.70
2019-03-28T02:11:22.770Z,4.40
2019-03-28T02:13:49.983Z,4.70
2019-03-28T02:16:17.213Z,3.45
2019-03-28T02:18:44.459Z,3.83
2019-03-28T02:21:11.687Z,4.25
2019-03-28T02:23:38.907Z,5.78
2019-03-28T02:26:06.126Z,5.17
2019-03-28T02:28:33.352Z,4.37
2019-03-28T02:31:00.579Z,4.55
2019-03-28T02:33:27.784Z,4.60
2019-03-28T02:35:55.006Z,4.25
2019-03-28T02:38:22.226Z,3.83
2019-03-28T02:40:49.488Z,4.58
2019-03-28T02:43:16.709Z,4.97
2019-03-28T02:45:43.954Z,4.03
2019-03-28T02:48:11.165Z,4.33
2019-03-28T02:50:38.386Z,3.72
2019-03-28T02:53:05.602Z,5.25
2019-03-28T02:55:32.839Z,5.25
2019-03-28T02:58:00.052Z,4.83
2019-03-28T03:00:27.281Z,5.78
2019-03-28T03:02:54.502Z,4.85
2019-03-28T03:05:21.728Z,4.40
2019-03-28T03:07:48.944Z,5.25
2019-03-28T03:10:16.397Z,5.58
2019-03-28T03:12:44.335Z,4.53
2019-03-28T03:15:11.653Z,4.47
2019-03-28T03:17:38.924Z,4.55
2019-03-28T03:20:06.306Z,5.70
2019-03-28T03:22:33.530Z,4.35
2019-03-28T03:25:00.763Z,4.05
2019-03-28T03:27:27.994Z,4.55
2019-03-28T03:29:55.203Z,5.25
2019-03-28T03:32:22.437Z,5.78
2019-03-28T03:34:49.769Z,4.42
2019-03-28T03:37:17.341Z,5.22
2019-03-28T03:39:44.648Z,4.28
2019-03-28T03:42:12.097Z,5.37
2019-03-28T03:44:39.383Z,4.50
2019-03-28T03:47:06.773Z,4.97
2019-03-28T03:49:33.991Z,4.72
2019-03-28T03:52:01.219Z,4.92
2019-03-28T03:54:28.450Z,5.80
2019-03-28T03:56:55.669Z,4.15
2019-03-28T03:59:22.880Z,4.55
2019-03-28T04:01:50.111Z,4.92
2019-03-28T04:04:17.334Z,4.75
2019-03-28T04:06:44.728Z,4.45
2019-03-28T04:09:11.976Z,4.30
2019-03-28T04:11:39.277Z,3.80
2019-03-28T04:14:06.568Z,3.87
2019-03-28T04:16:33.864Z,5.30
2019-03-28T04:19:01.126Z,5.30
2019-03-28T04:21:28.351Z,4.65
2019-03-28T04:23:55.771Z,5.17
2019-03-28T04:26:24.939Z,6.85
2019-03-28T04:28:52.162Z,5.25
2019-03-28T04:31:19.402Z,3.75
2019-03-28T04:33:46.610Z,5.85
2019-03-28T04:36:14.493Z,5.72
2019-03-28T04:38:41.739Z,4.75
2019-03-28T04:41:08.960Z,5.22
2019-03-28T04:43:36.196Z,5.85
2019-03-28T04:46:03.413Z,6.53
2019-03-28T04:48:30.631Z,4.72
2019-03-28T04:50:57.850Z,4.65
2019-03-28T04:53:25.078Z,5.10
2019-03-28T04:55:52.287Z,5.85
2019-03-28T04:58:21.674Z,5.35
2019-03-28T05:00:48.463Z,4.72
2019-03-28T05:03:15.714Z,5.90
2019-03-28T05:05:42.924Z,5.22
2019-03-28T05:08:10.138Z,5.40
2019-03-28T05:10:37.355Z,4.97
2019-03-28T05:13:04.583Z,5.42
2019-03-28T05:15:32.144Z,5.65
2019-03-28T05:17:59.503Z,4.95
2019-03-28T05:20:26.725Z,5.33
2019-03-28T05:22:53.942Z,5.37
2019-03-28T05:25:21.173Z,4.37
2019-03-28T05:27:48.407Z,6.15
2019-03-28T05:30:15.756Z,6.30
2019-03-28T05:32:42.980Z,6.05
2019-03-28T05:35:10.569Z,5.00
2019-03-28T05:37:37.815Z,6.70
2019-03-28T05:40:06.609Z,5.80
2019-03-28T05:42:33.851Z,4.97
2019-03-28T05:45:01.072Z,5.65
2019-03-28T05:47:28.287Z,6.08
2019-03-28T05:49:55.594Z,6.35
2019-03-28T05:52:22.834Z,5.70
2019-03-28T05:54:50.071Z,4.90
2019-03-28T05:57:17.307Z,6.20
2019-03-28T05:59:45.326Z,6.28
2019-03-28T06:02:12.716Z,4.80
2019-03-28T06:04:39.942Z,5.60
2019-03-28T06:07:08.766Z,5.92
2019-03-28T06:09:36.286Z,5.00
2019-03-28T06:12:03.495Z,5.05
2019-03-28T06:14:30.719Z,5.28
2019-03-28T06:16:57.941Z,6.35
2019-03-28T06:19:25.238Z,5.97
2019-03-28T06:21:52.462Z,5.58
2019-03-28T06:24:19.695Z,4.95
2019-03-28T06:26:49.816Z,6.25
2019-03-28T06:29:23.772Z,5.55
2019-03-28T06:31:54.636Z,6.50
2019-03-28T06:34:13.775Z,4.95
2019-03-28T06:36:40.999Z,5.62
2019-03-28T06:39:08.231Z,5.37
2019-03-28T06:41:35.447Z,5.42
2019-03-28T06:44:02.672Z,5.62
2019-03-28T06:46:29.900Z,6.10
2019-03-28T06:48:57.140Z,5.55
2019-03-28T06:51:24.503Z,5.55
2019-03-28T06:53:51.728Z,5.33
2019-03-28T06:56:18.954Z,6.17
2019-03-28T06:58:46.232Z,5.50
2019-03-28T07:01:13.491Z,7.17
2019-03-28T07:03:40.745Z,6.37
2019-03-28T07:06:07.953Z,6.28
2019-03-28T07:08:35.262Z,5.75
2019-03-28T07:11:02.585Z,6.37
2019-03-28T07:13:30.083Z,5.95
2019-03-28T07:15:57.313Z,5.97
2019-03-28T07:18:24.529Z,7.53
2019-03-28T07:20:52.363Z,8.73
2019-03-28T07:23:20.775Z,7.30
2019-03-28T07:25:48.000Z,8.35
2019-03-28T07:28:15.256Z,7.67
2019-03-28T07:30:42.712Z,7.53
2019-03-28T07:33:09.943Z,7.30
2019-03-28T07:35:37.180Z,6.17
2019-03-28T07:38:04.403Z,6.85
2019-03-28T07:40:33.519Z,7.50
2019-03-28T07:43:00.584Z,7.97
2019-03-28T07:45:27.846Z,5.73
2019-03-28T07:47:55.061Z,6.27
2019-03-28T07:50:22.291Z,6.13
2019-03-28T07:52:49.521Z,5.70
2019-03-28T07:55:16.954Z,5.90
2019-03-28T07:57:44.239Z,5.70
2019-03-28T08:00:11.952Z,6.80
2019-03-28T08:02:39.170Z,5.90
2019-03-28T08:05:07.972Z,6.83
2019-03-28T08:07:44.922Z,5.87
2019-03-28T08:10:07.788Z,6.63
2019-03-28T08:12:35.372Z,6.70
2019-03-28T08:15:04.171Z,6.20
2019-03-28T08:17:31.391Z,6.60
2019-03-28T08:19:58.631Z,6.67
2019-03-28T08:22:25.847Z,6.30
2019-03-28T08:24:53.092Z,5.57
2019-03-28T08:27:20.368Z,7.20
2019-03-28T08:29:47.639Z,7.23
2019-03-28T08:32:16.496Z,6.27
2019-03-28T08:34:44.638Z,7.57
2019-03-28T08:37:13.829Z,6.57
2019-03-28T08:39:44.368Z,5.90
2019-03-28T08:42:09.982Z,5.70
2019-03-28T08:44:37.200Z,6.00
2019-03-28T08:47:06.266Z,5.50
2019-03-28T08:49:33.367Z,5.87
2019-03-28T08:52:00.592Z,5.47
2019-03-28T08:54:27.818Z,6.60
2019-03-28T08:56:55.047Z,6.00
2019-03-28T08:59:22.270Z,5.70
2019-03-28T09:01:49.496Z,7.00
2019-03-28T09:04:16.715Z,6.33
2019-03-28T09:06:43.994Z,5.53
2019-03-28T09:09:11.199Z,5.60
2019-03-28T09:11:38.427Z,5.70
2019-03-28T09:14:05.641Z,6.07
2019-03-28T09:16:32.883Z,5.87
2019-03-28T09:19:00.126Z,6.73
2019-03-28T09:21:27.352Z,5.13
2019-03-28T09:23:54.573Z,5.83
2019-03-28T09:26:21.802Z,5.47
2019-03-28T09:28:49.024Z,3.93
2019-03-28T09:31:20.042Z,5.30
2019-03-28T09:33:45.196Z,4.90
2019-03-28T09:36:12.419Z,4.60
2019-03-28T09:38:39.651Z,4.70
2019-03-28T09:41:06.875Z,4.27
2019-03-28T09:43:34.094Z,4.77
2019-03-28T09:46:01.964Z,4.80
2019-03-28T09:48:29.325Z,4.13
2019-03-28T09:50:56.567Z,5.67
2019-03-28T09:53:23.770Z,4.70
2019-03-28T09:55:51.055Z,5.20
2019-03-28T09:58:18.285Z,4.30
2019-03-28T10:00:45.544Z,4.27
2019-03-28T10:03:12.780Z,5.83
2019-03-28T10:05:40.003Z,5.27
2019-03-28T10:08:07.231Z,5.40
2019-03-28T10:10:34.452Z,5.27
2019-03-28T10:13:01.695Z,4.43
2019-03-28T10:15:28.907Z,4.77
2019-03-28T10:17:56.138Z,4.10
2019-03-28T10:20:23.371Z,4.20
2019-03-28T10:22:50.609Z,4.37
2019-03-28T10:25:17.879Z,3.57
2019-03-28T10:27:45.141Z,3.00
2019-03-28T10:30:12.984Z,4.47
2019-03-28T10:32:40.213Z,3.90
2019-03-28T10:35:07.553Z,4.00
2019-03-28T10:37:34.775Z,4.43
2019-03-28T10:40:02.051Z,5.70
2019-03-28T10:42:29.307Z,5.50
2019-03-28T10:44:56.639Z,5.93
2019-03-28T10:47:23.916Z,5.33
2019-03-28T10:49:51.176Z,5.63
2019-03-28T10:52:18.436Z,5.37
2019-03-28T10:54:45.702Z,4.33
2019-03-28T10:57:23.924Z,5.80
2019-03-28T10:59:41.943Z,5.73
2019-03-28T11:02:09.283Z,6.00
2019-03-28T11:04:36.547Z,5.30
2019-03-28T11:07:03.815Z,6.77
2019-03-28T11:09:31.075Z,6.50
2019-03-28T11:11:58.339Z,5.70
2019-03-28T11:14:25.600Z,5.73
2019-03-28T11:16:52.872Z,6.60
2019-03-28T11:19:20.167Z,6.67
2019-03-28T11:21:47.502Z,5.33
2019-03-28T11:24:14.832Z,5.90
2019-03-28T11:26:42.099Z,5.47
2019-03-28T11:29:09.354Z,5.60
2019-03-28T11:31:46.736Z,5.10
2019-03-28T11:34:05.683Z,4.70
2019-03-28T11:36:32.950Z,6.10
2019-03-28T11:39:02.756Z,4.83
2019-03-28T11:41:29.194Z,4.47
2019-03-28T11:43:56.464Z,4.73
2019-03-28T11:46:23.723Z,4.23
2019-03-28T11:48:50.983Z,4.70
2019-03-28T11:51:18.250Z,4.40
2019-03-28T11:53:45.511Z,4.97
2019-03-28T11:56:12.772Z,4.10
2019-03-28T11:58:40.037Z,4.33
2019-03-28T12:01:07.315Z,4.73
2019-03-28T12:03:34.587Z,4.10
2019-03-28T12:06:01.831Z,3.70
2019-03-28T12:08:30.730Z,5.80
2019-03-28T12:10:57.982Z,4.67
2019-03-28T12:13:25.264Z,5.03
2019-03-28T12:15:52.587Z,4.60
2019-03-28T12:18:19.886Z,6.23
2019-03-28T12:20:47.199Z,6.17
2019-03-28T12:23:14.518Z,6.53
2019-03-28T12:25:41.768Z,5.13
2019-03-28T12:28:09.067Z,5.13
2019-03-28T12:30:36.328Z,4.97
2019-03-28T12:33:03.607Z,5.57
2019-03-28T12:35:30.862Z,6.03
2019-03-28T12:37:58.137Z,4.40
2019-03-28T12:40:25.399Z,5.47
2019-03-28T12:42:52.655Z,4.73
2019-03-28T12:45:19.916Z,4.93
2019-03-28T12:47:47.211Z,5.53
2019-03-28T12:50:14.703Z,6.00
2019-03-28T12:52:41.971Z,4.90
2019-03-28T12:55:09.399Z,4.57
2019-03-28T12:57:36.644Z,4.40
2019-03-28T13:00:06.069Z,4.63
2019-03-28T13:02:34.078Z,4.37
2019-03-28T13:05:01.355Z,4.30
2019-03-28T13:07:28.602Z,4.77
2019-03-28T13:09:55.871Z,5.03
2019-03-28T13:12:23.140Z,4.70
2019-03-28T13:14:50.405Z,4.53
2019-03-28T13:17:17.686Z,4.63
2019-03-28T13:19:44.951Z,4.70
2019-03-28T13:22:12.234Z,4.70
2019-03-28T13:24:39.490Z,4.60
2019-03-28T13:27:06.831Z,6.10
2019-03-28T13:29:34.102Z,4.90
2019-03-28T13:32:01.360Z,5.37
2019-03-28T13:34:28.645Z,5.80
2019-03-28T13:36:55.904Z,4.43
2019-03-28T13:39:23.182Z,5.03
2019-03-28T13:41:50.439Z,5.17
2019-03-28T13:44:17.699Z,4.10
2019-03-28T13:46:44.963Z,4.97
2019-03-28T13:49:12.237Z,4.57
2019-03-28T13:51:39.492Z,7.10
2019-03-28T13:54:06.751Z,5.30
2019-03-28T13:56:34.012Z,9.90
2019-03-28T13:59:01.275Z,6.40
2019-03-28T14:01:28.538Z,4.33
2019-03-28T14:03:55.798Z,5.10
2019-03-28T14:06:23.059Z,4.70
2019-03-28T14:08:50.360Z,3.60
2019-03-28T14:11:17.625Z,4.70
2019-03-28T14:13:44.894Z,5.17
2019-03-28T14:16:12.165Z,4.20
2019-03-28T14:18:39.419Z,4.83
2019-03-28T14:21:06.679Z,4.00
2019-03-28T14:23:33.938Z,4.40
2019-03-28T14:26:01.207Z,4.20
2019-03-28T14:28:28.563Z,4.20
2019-03-28T14:30:55.831Z,4.53
2019-03-28T14:33:23.086Z,4.83
2019-03-28T14:35:50.355Z,5.00
2019-03-28T14:38:18.747Z,4.27
2019-03-28T14:40:46.016Z,4.27
2019-03-28T14:43:13.269Z,4.07
2019-03-28T14:45:40.547Z,4.30
2019-03-28T14:48:07.800Z,4.00
2019-03-28T14:50:36.030Z,3.43
2019-03-28T14:53:03.284Z,3.67
2019-03-28T14:55:30.723Z,3.47
2019-03-28T14:57:58.052Z,2.70
2019-03-28T15:00:32.670Z,3.37
2019-03-28T15:02:59.932Z,3.70
2019-03-28T15:05:27.190Z,2.90
2019-03-28T15:07:54.450Z,3.53
2019-03-28T15:10:21.742Z,2.67
2019-03-28T15:12:48.990Z,2.83
2019-03-28T15:15:16.268Z,2.93
2019-03-28T15:17:45.043Z,2.87
2019-03-28T15:20:12.547Z,2.60
2019-03-28T15:22:39.816Z,3.27
2019-03-28T15:25:07.255Z,3.27
2019-03-28T15:27:34.487Z,2.80
2019-03-28T15:30:01.769Z,3.10
2019-03-28T15:32:29.072Z,2.70
2019-03-28T15:34:56.326Z,2.20
2019-03-28T15:37:23.620Z,3.00
2019-03-28T15:39:50.962Z,4.40
2019-03-28T15:42:18.242Z,2.40
2019-03-28T15:44:45.552Z,2.90
2019-03-28T15:47:12.817Z,2.83
2019-03-28T15:49:40.072Z,3.37
2019-03-28T15:52:07.346Z,5.23
2019-03-28T15:54:34.603Z,7.87
2019-03-28T15:57:01.872Z,3.63
2019-03-28T15:59:29.138Z,3.63
2019-03-28T16:02:00.964Z,3.67
2019-03-28T16:04:28.228Z,3.70
2019-03-28T16:06:55.493Z,4.00
2019-03-28T16:09:22.752Z,5.17
2019-03-28T16:12:01.963Z,3.90
2019-03-28T16:14:19.073Z,3.90
2019-03-28T16:16:46.347Z,4.13
2019-03-28T16:19:13.603Z,4.50
2019-03-28T16:21:40.863Z,4.13
2019-03-28T16:24:08.123Z,3.73
2019-03-28T16:26:35.423Z,3.90
2019-03-28T16:29:02.736Z,4.10
2019-03-28T16:31:30.000Z,6.83
2019-03-28T16:34:06.780Z,4.47
2019-03-28T16:36:26.241Z,4.10
2019-03-28T16:38:53.495Z,6.50
2019-03-28T16:41:20.754Z,6.17
2019-03-28T16:43:48.019Z,4.47
2019-03-28T16:46:15.364Z,6.33
2019-03-28T16:48:42.615Z,4.13
2019-03-28T16:51:09.870Z,4.20
2019-03-28T16:53:37.131Z,5.40
2019-03-28T16:56:04.535Z,4.90
2019-03-28T16:58:31.817Z,4.50
2019-03-28T17:00:59.150Z,4.50
2019-03-28T17:03:26.407Z,4.70
2019-03-28T17:05:53.689Z,5.20
2019-03-28T17:08:21.014Z,5.27
2019-03-28T17:10:49.039Z,4.10
2019-03-28T17:13:16.554Z,3.80
2019-03-28T17:15:43.938Z,3.70
2019-03-28T17:18:11.245Z,4.60
2019-03-28T17:20:38.510Z,7.43
2019-03-28T17:23:05.791Z,6.53
2019-03-28T17:25:33.053Z,11.93
2019-03-28T17:28:00.545Z,6.50
2019-03-28T17:30:27.820Z,4.80
2019-03-28T17:32:55.168Z,5.73
2019-03-28T17:35:22.425Z,5.60
2019-03-28T17:37:49.727Z,3.80
2019-03-28T17:40:17.024Z,4.20
2019-03-28T17:42:47.627Z,4.23
2019-03-28T17:45:13.251Z,3.67
2019-03-28T17:47:40.511Z,5.40
2019-03-28T17:50:07.859Z,4.60
2019-03-28T17:52:35.174Z,4.00
2019-03-28T17:55:03.576Z,5.00
2019-03-28T17:57:31.043Z,4.10
2019-03-28T17:59:58.303Z,5.47
2019-03-28T18:02:25.576Z,5.10
2019-03-28T18:04:53.327Z,4.20
2019-03-28T18:07:20.618Z,4.00
2019-03-28T18:09:47.913Z,3.60
2019-03-28T18:12:15.182Z,3.87
2019-03-28T18:14:42.850Z,4.13
2019-03-28T18:17:10.162Z,4.63
2019-03-28T18:19:37.418Z,4.30
2019-03-28T18:22:04.779Z,4.17
2019-03-28T18:24:32.044Z,5.37
2019-03-28T18:26:59.334Z,5.57
2019-03-28T18:29:27.129Z,5.17
2019-03-28T18:31:55.138Z,5.17
2019-03-28T18:34:22.464Z,5.50
2019-03-28T18:36:50.078Z,3.90
2019-03-28T18:39:17.399Z,4.33
2019-03-28T18:41:44.720Z,4.97
2019-03-28T18:44:12.033Z,4.87
2019-03-28T18:46:39.296Z,5.63
2019-03-28T18:49:08.099Z,4.93
2019-03-28T18:51:35.350Z,5.90
2019-03-28T18:54:02.623Z,6.57
2019-03-28T18:56:29.934Z,5.20
2019-03-28T18:58:59.908Z,5.83
2019-03-28T19:01:27.167Z,12.03
2019-03-28T19:03:54.510Z,11.37
2019-03-28T19:06:21.768Z,9.23
2019-03-28T19:08:49.080Z,16.13
2019-03-28T19:11:16.390Z,7.90
2019-03-28T19:13:43.700Z,8.30
2019-03-28T19:16:10.974Z,7.30
2019-03-28T19:18:38.274Z,6.50
2019-03-28T19:21:05.528Z,4.83
2019-03-28T19:23:32.781Z,5.00
2019-03-28T19:26:00.266Z,5.00
2019-03-28T20:59:13.708Z,4.53
2019-03-28T21:01:42.561Z,4.53
2019-03-28T21:04:13.030Z,3.60
2019-03-28T21:06:40.459Z,5.00
2019-03-28T21:09:07.786Z,4.87
2019-03-28T21:11:35.050Z,5.67
2019-03-28T21:14:02.310Z,4.73
2019-03-28T21:16:29.574Z,4.70
2019-03-28T21:18:57.802Z,4.57
2019-03-28T21:21:25.200Z,4.80
2019-03-28T21:23:52.578Z,4.40
2019-03-28T21:26:19.843Z,4.13
2019-03-28T21:28:47.785Z,5.40
2019-03-28T21:31:15.890Z,5.30
2019-03-28T21:33:43.436Z,4.90
2019-03-28T21:36:10.706Z,4.20
2019-03-28T21:38:37.906Z,5.23
2019-03-28T21:41:05.137Z,4.70
2019-03-28T21:43:32.424Z,4.47
2019-03-28T21:45:59.667Z,4.47
2019-03-28T21:48:26.891Z,5.73
2019-03-28T21:50:54.155Z,5.03
2019-03-28T21:53:21.375Z,4.80
2019-03-28T21:55:55.128Z,4.87
2019-03-28T21:58:17.634Z,4.33
2019-03-28T22:00:44.855Z,5.53
2019-03-28T22:03:12.078Z,5.07
2019-03-28T22:05:39.295Z,3.80
2019-03-28T22:08:07.027Z,5.10
2019-03-28T22:10:34.314Z,4.37
2019-03-28T22:13:01.537Z,4.43
2019-03-28T22:15:28.819Z,4.70
2019-03-28T22:17:56.043Z,5.80
2019-03-28T22:20:23.258Z,4.33
2019-03-28T22:22:50.479Z,4.80
2019-03-28T22:25:17.694Z,4.60
2019-03-28T22:27:47.392Z,4.47
2019-03-28T22:30:13.880Z,5.00
2019-03-28T22:32:41.079Z,4.00
2019-03-28T22:35:08.725Z,4.40
2019-03-28T22:37:35.941Z,4.23
2019-03-28T22:40:04.933Z,5.20
2019-03-28T22:42:32.338Z,4.33
2019-03-28T22:44:59.555Z,4.65
2019-03-28T22:47:26.780Z,4.10
2019-03-28T22:49:53.991Z,4.80
2019-03-28T22:52:21.227Z,4.60
2019-03-28T22:54:48.452Z,5.43
2019-03-28T22:57:15.793Z,4.87
2019-03-28T22:59:43.367Z,4.77
2019-03-28T23:02:10.593Z,5.10
2019-03-28T23:04:38.904Z,4.60
2019-03-28T23:07:11.137Z,5.40
2019-03-28T23:09:35.190Z,5.20
2019-03-28T23:12:02.435Z,4.80
2019-03-28T23:14:29.652Z,5.90
2019-03-28T23:16:56.879Z,5.13
2019-03-28T23:19:24.126Z,5.25
2019-03-28T23:21:51.388Z,5.20
2019-03-28T23:24:18.726Z,5.67
2019-03-28T23:26:46.051Z,4.90
2019-03-28T23:29:13.357Z,5.23
2019-03-28T23:31:40.584Z,5.27
2019-03-28T23:34:07.803Z,5.03
2019-03-28T23:36:35.139Z,5.77
2019-03-28T23:39:02.336Z,4.90
2019-03-28T23:41:29.568Z,6.20
2019-03-28T23:43:56.791Z,5.80
2019-03-28T23:46:24.024Z,5.30
2019-03-28T23:48:51.242Z,7.43
2019-03-28T23:51:18.473Z,6.30
2019-03-28T23:53:45.731Z,5.00
2019-03-28T23:56:12.966Z,5.58
2019-03-28T23:58:40.191Z,4.87
